createdAt,value
2022-12-25T00:00:21.002Z,10.18
2022-12-25T00:03:23.143Z,10.04
2022-12-25T00:06:25.087Z,9.96
2022-12-25T00:09:27.140Z,9.99
2022-12-25T00:12:28.838Z,10.11
2022-12-25T00:15:30.412Z,10.23
2022-12-25T00:18:32.070Z,10.20
2022-12-25T00:21:33.689Z,10.11
2022-12-25T00:24:35.360Z,10.13
2022-12-25T00:27:39.886Z,10.09
2022-12-25T00:30:41.483Z,10.10
2022-12-25T00:33:45.544Z,10.11
2022-12-25T00:36:50.729Z,10.11
2022-12-25T00:39:52.301Z,10.11
2022-12-25T00:42:53.885Z,10.14
2022-12-25T00:45:57.814Z,10.18
2022-12-25T00:49:00.529Z,10.32
2022-12-25T00:52:02.505Z,10.29
2022-12-25T00:55:04.648Z,10.20
2022-12-25T00:58:06.364Z,10.16
2022-12-25T01:01:11.026Z,10.18
2022-12-25T01:04:13.150Z,10.13
2022-12-25T01:07:16.965Z,9.55
2022-12-25T01:10:24.891Z,9.20
2022-12-25T01:13:28.173Z,9.16
2022-12-25T01:16:29.879Z,9.14
2022-12-25T01:19:31.612Z,9.16
2022-12-25T01:22:33.196Z,8.99
2022-12-25T01:25:34.913Z,9.25
2022-12-25T01:28:37.555Z,9.18
2022-12-25T01:31:39.233Z,9.12
2022-12-25T01:34:40.877Z,9.16
2022-12-25T01:37:42.523Z,9.64
2022-12-25T01:40:44.288Z,9.59
2022-12-25T01:43:59.885Z,9.81
2022-12-25T01:47:02.710Z,9.68
2022-12-25T01:50:04.835Z,9.81
2022-12-25T01:53:07.484Z,9.70
2022-12-25T01:56:09.681Z,9.78
2022-12-25T01:59:16.342Z,10.06
2022-12-25T02:02:18.226Z,10.13
2022-12-25T02:05:26.991Z,10.23
2022-12-25T02:08:28.608Z,10.08
2022-12-25T02:11:48.853Z,10.16
2022-12-25T02:14:52.547Z,10.11
2022-12-25T02:17:54.090Z,10.21
2022-12-25T02:21:16.996Z,10.22
2022-12-25T02:24:53.551Z,10.49
2022-12-25T02:28:06.455Z,10.51
2022-12-25T02:31:13.359Z,10.49
2022-12-25T02:34:23.651Z,10.53
2022-12-25T02:37:35.946Z,10.53
2022-12-25T02:40:50.058Z,10.63
2022-12-25T02:44:10.466Z,10.55
2022-12-25T02:47:31.586Z,10.64
2022-12-25T02:50:52.111Z,10.61
2022-12-25T02:54:15.465Z,10.53
2022-12-25T02:57:38.935Z,10.52
2022-12-25T03:01:03.483Z,10.63
2022-12-25T03:04:30.036Z,10.67
2022-12-25T03:07:37.691Z,10.69
2022-12-25T03:11:04.048Z,10.65
2022-12-25T03:14:26.823Z,10.81
2022-12-25T03:17:28.446Z,10.77
2022-12-25T03:20:49.865Z,10.86
2022-12-25T03:24:22.334Z,10.89
2022-12-25T03:27:25.839Z,10.91
2022-12-25T03:31:00.230Z,10.96
2022-12-25T03:34:28.627Z,11.02
2022-12-25T03:38:12.495Z,11.12
2022-12-25T03:42:03.173Z,11.03
2022-12-25T03:46:00.147Z,11.06
2022-12-25T03:49:40.169Z,10.90
2022-12-25T03:53:02.874Z,11.00
2022-12-25T03:56:24.093Z,11.13
2022-12-25T03:59:44.298Z,11.17
2022-12-25T04:03:04.787Z,11.26
2022-12-25T04:06:25.018Z,11.22
2022-12-25T04:09:45.763Z,11.27
2022-12-25T04:13:06.056Z,11.35
2022-12-25T04:16:26.461Z,11.34
2022-12-25T04:19:57.371Z,11.31
2022-12-25T04:23:18.047Z,11.29
2022-12-25T04:26:38.027Z,11.31
2022-12-25T04:29:58.184Z,11.29
2022-12-25T04:33:18.219Z,11.13
2022-12-25T04:36:19.867Z,10.70
2022-12-25T04:39:21.463Z,10.45
2022-12-25T04:42:23.126Z,10.15
2022-12-25T04:45:24.737Z,9.91
2022-12-25T04:48:28.651Z,9.82
2022-12-25T04:51:30.321Z,9.77
2022-12-25T04:54:32.075Z,9.68
2022-12-25T04:57:33.974Z,9.65
2022-12-25T05:00:36.010Z,9.55
2022-12-25T05:03:38.195Z,9.45
2022-12-25T05:06:40.390Z,9.43
2022-12-25T05:09:42.045Z,9.41
2022-12-25T05:12:44.004Z,9.39
2022-12-25T05:15:45.686Z,9.30
2022-12-25T05:18:51.958Z,9.35
2022-12-25T05:21:54.382Z,9.23
2022-12-25T05:24:56.012Z,9.20
2022-12-25T05:27:57.673Z,9.23
2022-12-25T05:30:59.429Z,9.20
2022-12-25T05:34:01.171Z,9.21
2022-12-25T05:37:04.002Z,9.21
2022-12-25T05:40:06.463Z,8.99
2022-12-25T05:43:08.287Z,9.07
2022-12-25T05:46:11.526Z,9.13
2022-12-25T05:49:13.212Z,9.09
2022-12-25T05:52:14.786Z,8.94
2022-12-25T05:55:16.503Z,8.86
2022-12-25T05:58:18.113Z,8.77
2022-12-25T06:01:23.810Z,8.83
2022-12-25T06:04:26.797Z,8.85
2022-12-25T06:07:28.427Z,8.85
2022-12-25T06:10:30.148Z,8.83
2022-12-25T06:13:32.743Z,8.82
2022-12-25T06:16:38.248Z,8.77
2022-12-25T06:19:42.561Z,8.81
2022-12-25T06:22:44.337Z,8.73
2022-12-25T06:25:46.101Z,8.78
2022-12-25T06:28:48.123Z,8.79
2022-12-25T06:31:49.833Z,8.85
2022-12-25T06:34:51.505Z,8.82
2022-12-25T06:37:53.327Z,8.79
2022-12-25T06:40:54.918Z,8.76
2022-12-25T06:43:58.808Z,8.76
2022-12-25T06:47:00.407Z,8.67
2022-12-25T06:50:02.316Z,8.71
2022-12-25T06:53:03.943Z,8.70
2022-12-25T06:56:07.583Z,8.76
2022-12-25T06:59:10.371Z,8.76
2022-12-25T07:02:19.405Z,8.81
2022-12-25T07:05:21.103Z,8.88
2022-12-25T07:08:22.731Z,8.85
2022-12-25T07:11:25.037Z,8.76
2022-12-25T07:14:26.613Z,8.81
2022-12-25T07:17:28.302Z,8.84
2022-12-25T07:20:30.123Z,8.85
2022-12-25T07:23:31.685Z,8.83
2022-12-25T07:26:33.263Z,8.84
2022-12-25T07:29:35.288Z,8.93
2022-12-25T07:32:36.912Z,8.95
2022-12-25T07:35:38.808Z,9.02
2022-12-25T07:38:42.016Z,9.16
2022-12-25T07:41:44.381Z,9.14
2022-12-25T07:44:49.238Z,9.27
2022-12-25T07:47:53.784Z,9.24
2022-12-25T07:50:57.714Z,9.33
2022-12-25T07:53:59.349Z,9.28
2022-12-25T07:57:00.908Z,9.17
2022-12-25T08:00:06.600Z,9.18
2022-12-25T08:03:15.914Z,9.11
2022-12-25T08:06:18.869Z,9.10
2022-12-25T08:09:20.488Z,8.97
2022-12-25T08:12:22.199Z,8.90
2022-12-25T08:15:23.822Z,8.78
2022-12-25T08:18:29.934Z,8.71
2022-12-25T08:21:31.906Z,8.76
2022-12-25T08:24:33.537Z,8.71
2022-12-25T08:27:35.410Z,8.66
2022-12-25T08:30:40.972Z,8.77
2022-12-25T08:33:43.209Z,8.76
2022-12-25T08:36:44.864Z,8.52
2022-12-25T08:39:46.457Z,8.46
2022-12-25T08:42:47.991Z,8.44
2022-12-25T08:45:49.607Z,8.55
2022-12-25T08:48:51.357Z,8.57
2022-12-25T08:51:53.134Z,8.57
2022-12-25T08:54:54.890Z,8.59
2022-12-25T08:57:56.616Z,8.60
2022-12-25T09:00:58.602Z,8.58
2022-12-25T09:04:00.335Z,8.53
2022-12-25T09:07:02.696Z,8.58
2022-12-25T09:10:04.677Z,8.48
2022-12-25T09:13:06.497Z,8.69
2022-12-25T09:16:10.435Z,8.80
2022-12-25T09:19:12.095Z,8.84
2022-12-25T09:22:13.673Z,8.95
2022-12-25T09:25:15.411Z,9.24
2022-12-25T09:28:17.032Z,9.67
2022-12-25T09:31:19.137Z,10.05
2022-12-25T09:34:20.797Z,10.28
2022-12-25T09:37:22.403Z,10.60
2022-12-25T09:40:28.567Z,10.65
2022-12-25T09:43:33.812Z,10.56
2022-12-25T09:46:43.114Z,10.53
2022-12-25T09:50:02.660Z,10.78
2022-12-25T09:53:18.781Z,10.89
2022-12-25T09:56:27.306Z,10.86
2022-12-25T09:59:29.296Z,10.79
2022-12-25T10:02:36.647Z,10.81
2022-12-25T10:05:55.805Z,10.90
2022-12-25T10:09:11.785Z,11.00
2022-12-25T10:12:35.331Z,11.06
2022-12-25T10:16:05.698Z,11.04
2022-12-25T10:19:22.461Z,11.15
2022-12-25T10:22:32.121Z,11.14
2022-12-25T10:25:36.839Z,11.25
2022-12-25T10:28:42.856Z,11.34
2022-12-25T10:31:46.727Z,11.42
2022-12-25T10:34:48.944Z,11.68
2022-12-25T10:38:00.154Z,11.83
2022-12-25T10:41:34.227Z,11.76
2022-12-25T10:44:36.604Z,11.69
2022-12-25T10:47:42.047Z,11.63
2022-12-25T10:50:44.039Z,11.65
2022-12-25T10:53:45.558Z,11.78
2022-12-25T10:56:56.450Z,11.77
2022-12-25T10:59:58.150Z,11.44
2022-12-25T11:03:00.791Z,11.34
2022-12-25T11:06:03.016Z,11.35
2022-12-25T11:09:05.101Z,11.28
2022-12-25T11:12:07.310Z,11.07
2022-12-25T11:15:36.746Z,11.25
2022-12-25T11:18:50.875Z,11.68
2022-12-25T11:21:57.271Z,11.85
2022-12-25T11:25:12.547Z,11.81
2022-12-25T11:28:14.381Z,12.08
2022-12-25T11:31:46.657Z,12.00
2022-12-25T11:34:50.171Z,12.01
2022-12-25T11:37:52.803Z,12.41
2022-12-25T11:41:02.698Z,12.66
2022-12-25T11:44:19.368Z,12.68
2022-12-25T11:47:40.780Z,12.90
2022-12-25T11:50:49.854Z,13.15
2022-12-25T11:53:55.435Z,13.59
2022-12-25T11:56:59.697Z,13.63
2022-12-25T12:00:15.737Z,13.75
2022-12-25T12:03:37.244Z,13.74
2022-12-25T12:06:52.517Z,13.70
2022-12-25T12:10:26.659Z,13.38
2022-12-25T12:13:40.736Z,13.70
2022-12-25T12:16:42.486Z,13.77
2022-12-25T12:19:44.436Z,13.77
2022-12-25T12:22:50.853Z,13.74
2022-12-25T12:25:53.055Z,13.90
2022-12-25T12:28:59.188Z,13.67
2022-12-25T12:32:04.961Z,13.67
2022-12-25T12:35:20.486Z,13.73
2022-12-25T12:38:24.193Z,13.78
2022-12-25T12:41:46.498Z,13.76
2022-12-25T12:44:50.306Z,14.17
2022-12-25T12:47:53.264Z,14.10
2022-12-25T12:51:10.694Z,14.10
2022-12-25T12:54:22.643Z,13.78
2022-12-25T12:57:27.149Z,13.73
2022-12-25T13:00:44.572Z,13.83
2022-12-25T13:04:11.019Z,13.60
2022-12-25T13:07:20.105Z,13.53
2022-12-25T13:10:38.434Z,13.63
2022-12-25T13:13:42.812Z,13.30
2022-12-25T13:16:47.366Z,13.49
2022-12-25T13:19:54.763Z,13.38
2022-12-25T13:22:56.364Z,13.82
2022-12-25T13:26:14.330Z,13.50
2022-12-25T13:29:38.686Z,13.09
2022-12-25T13:32:41.948Z,12.83
2022-12-25T13:35:44.015Z,12.63
2022-12-25T13:38:48.176Z,12.68
2022-12-25T13:42:09.333Z,12.57
2022-12-25T13:45:13.953Z,12.51
2022-12-25T13:48:16.196Z,12.45
2022-12-25T13:51:20.541Z,12.42
2022-12-25T13:54:22.132Z,12.76
2022-12-25T13:57:31.258Z,12.79
2022-12-25T14:00:38.783Z,12.76
2022-12-25T14:03:43.975Z,12.75
2022-12-25T14:06:45.926Z,12.68
2022-12-25T14:09:51.091Z,12.65
2022-12-25T14:12:56.056Z,12.59
2022-12-25T14:15:58.030Z,12.49
2022-12-25T14:19:02.457Z,12.31
2022-12-25T14:22:13.806Z,12.36
2022-12-25T14:25:16.090Z,12.30
2022-12-25T14:28:25.530Z,12.32
2022-12-25T14:31:29.323Z,12.19
2022-12-25T14:34:32.449Z,12.25
2022-12-25T14:37:34.322Z,12.38
2022-12-25T14:40:36.110Z,13.01
2022-12-25T14:43:37.793Z,13.80
2022-12-25T14:46:39.541Z,13.78
2022-12-25T14:49:41.694Z,14.00
2022-12-25T14:52:45.048Z,14.07
2022-12-25T14:55:49.297Z,13.95
2022-12-25T14:58:53.740Z,13.92
2022-12-25T15:01:58.857Z,13.94
2022-12-25T15:05:00.620Z,14.09
2022-12-25T15:08:02.181Z,14.02
2022-12-25T15:11:04.376Z,13.91
2022-12-25T15:14:06.288Z,13.89
2022-12-25T15:17:25.013Z,13.86
2022-12-25T15:20:32.758Z,14.06
2022-12-25T15:23:34.385Z,14.14
2022-12-25T15:26:35.945Z,14.21
2022-12-25T15:30:08.507Z,14.10
2022-12-25T15:32:59.062Z,14.10
2022-12-25T15:36:00.793Z,13.98
2022-12-25T15:39:02.382Z,14.09
2022-12-25T15:42:12.932Z,14.15
2022-12-25T15:45:22.251Z,14.27
2022-12-25T15:48:23.813Z,14.21
2022-12-25T15:51:25.834Z,14.39
2022-12-25T15:54:27.500Z,14.33
2022-12-25T15:57:30.630Z,14.56
2022-12-25T16:00:32.285Z,14.64
2022-12-25T16:03:34.002Z,14.57
2022-12-25T16:06:35.664Z,14.67
2022-12-25T16:09:37.614Z,14.79
2022-12-25T16:12:39.365Z,14.76
2022-12-25T16:15:41.429Z,14.68
2022-12-25T16:18:47.337Z,14.53
2022-12-25T16:21:52.653Z,14.58
2022-12-25T16:25:05.663Z,14.47
2022-12-25T16:28:11.980Z,14.45
2022-12-25T16:31:14.183Z,14.66
2022-12-25T16:34:20.718Z,14.36
2022-12-25T16:37:22.789Z,14.47
2022-12-25T16:40:24.954Z,14.27
2022-12-25T16:43:27.395Z,14.18
2022-12-25T16:46:31.999Z,14.48
2022-12-25T16:49:33.845Z,14.05
2022-12-25T16:52:36.163Z,13.89
2022-12-25T16:55:38.584Z,14.06
2022-12-25T16:58:41.765Z,14.09
2022-12-25T17:01:43.667Z,14.24
2022-12-25T17:04:46.153Z,14.34
2022-12-25T17:07:48.106Z,14.14
2022-12-25T17:10:50.045Z,14.14
2022-12-25T17:13:52.234Z,13.99
2022-12-25T17:16:56.963Z,14.27
2022-12-25T17:19:58.793Z,14.12
2022-12-25T17:23:00.536Z,14.27
2022-12-25T17:26:02.417Z,14.30
2022-12-25T17:29:04.525Z,14.24
2022-12-25T17:32:07.991Z,14.45
2022-12-25T17:35:14.626Z,14.69
2022-12-25T17:38:16.237Z,14.35
2022-12-25T17:41:19.202Z,14.39
2022-12-25T17:44:21.158Z,14.70
2022-12-25T17:47:22.778Z,14.37
2022-12-25T17:50:25.701Z,14.42
2022-12-25T17:53:27.836Z,14.38
2022-12-25T17:56:29.525Z,14.25
2022-12-25T17:59:31.157Z,14.34
2022-12-25T18:02:33.100Z,14.40
2022-12-25T18:05:37.984Z,14.51
2022-12-25T18:08:40.587Z,14.44
2022-12-25T18:11:43.883Z,14.55
2022-12-25T18:14:45.722Z,14.40
2022-12-25T18:17:47.356Z,14.43
2022-12-25T18:20:49.089Z,14.28
2022-12-25T18:23:50.921Z,14.27
2022-12-25T18:26:52.523Z,14.10
2022-12-25T18:29:54.136Z,13.76
2022-12-25T18:32:55.775Z,13.70
2022-12-25T18:35:59.481Z,13.99
2022-12-25T18:39:02.007Z,14.18
2022-12-25T18:42:22.347Z,13.88
2022-12-25T18:45:24.020Z,13.51
2022-12-25T18:48:26.274Z,13.67
2022-12-25T18:51:34.896Z,13.42
2022-12-25T18:54:38.429Z,13.62
2022-12-25T18:57:40.978Z,13.46
2022-12-25T19:00:42.818Z,13.44
2022-12-25T19:03:45.973Z,13.61
2022-12-25T19:06:49.503Z,13.94
2022-12-25T19:09:51.370Z,14.16
2022-12-25T19:12:53.167Z,14.24
2022-12-25T19:15:59.726Z,14.36
2022-12-25T19:19:02.353Z,14.30
2022-12-25T19:22:03.993Z,14.31
2022-12-25T19:25:06.284Z,14.20
2022-12-25T19:28:07.928Z,14.32
2022-12-25T19:31:10.797Z,14.39
2022-12-25T19:34:12.837Z,14.43
2022-12-25T19:37:15.123Z,14.51
2022-12-25T19:40:16.960Z,14.51
2022-12-25T19:43:18.683Z,14.62
2022-12-25T19:46:24.573Z,14.62
2022-12-25T19:49:26.415Z,14.56
2022-12-25T19:52:28.092Z,14.77
2022-12-25T19:55:31.962Z,14.75
2022-12-25T19:58:33.613Z,14.62
2022-12-25T20:01:35.458Z,14.63
2022-12-25T20:04:37.257Z,14.58
2022-12-25T20:07:38.839Z,14.63
2022-12-25T20:10:45.267Z,14.63
2022-12-25T20:13:47.144Z,14.63
2022-12-25T20:16:48.786Z,14.50
2022-12-25T20:19:50.438Z,14.48
2022-12-25T20:22:52.028Z,14.48
2022-12-25T20:25:54.130Z,14.53
2022-12-25T20:28:56.242Z,14.42
2022-12-25T20:31:57.883Z,14.63
2022-12-25T20:34:59.543Z,14.53
2022-12-25T20:38:01.155Z,14.59
2022-12-25T20:44:28.515Z,14.60
2022-12-25T20:47:30.165Z,14.69
2022-12-25T20:50:32.454Z,14.65
2022-12-25T20:53:34.116Z,14.71
2022-12-25T20:56:36.491Z,14.72
2022-12-25T20:59:38.267Z,14.57
2022-12-25T21:02:40.071Z,14.76
2022-12-25T21:05:49.894Z,14.86
2022-12-25T21:08:51.835Z,14.70
2022-12-25T21:11:53.498Z,14.73
2022-12-25T21:14:55.141Z,14.69
2022-12-25T21:17:56.924Z,14.68
2022-12-25T21:20:59.472Z,14.79
2022-12-25T21:24:01.074Z,14.86
2022-12-25T21:27:02.698Z,13.95
2022-12-25T21:30:14.776Z,14.22
2022-12-25T21:33:36.115Z,14.16
2022-12-25T21:36:37.994Z,14.03
2022-12-25T21:39:39.701Z,13.97
2022-12-25T21:42:41.376Z,14.23
2022-12-25T21:45:43.085Z,14.41
2022-12-25T21:48:45.370Z,14.41
2022-12-25T21:52:05.567Z,14.31
2022-12-25T21:55:07.857Z,14.44
2022-12-25T21:58:09.696Z,14.25
2022-12-25T22:01:11.835Z,14.09
2022-12-25T22:04:15.888Z,14.49
2022-12-25T22:07:17.595Z,14.43
2022-12-25T22:10:19.230Z,14.36
2022-12-25T22:13:39.615Z,14.35
2022-12-25T22:16:59.969Z,14.16
2022-12-25T22:20:01.876Z,13.96
2022-12-25T22:23:04.233Z,13.96
2022-12-25T22:26:06.037Z,13.90
2022-12-25T22:29:07.681Z,14.01
2022-12-25T22:32:10.470Z,14.15
2022-12-25T22:35:13.437Z,14.02
2022-12-25T22:38:15.031Z,13.93
2022-12-25T22:41:16.681Z,14.03
2022-12-25T22:44:18.635Z,13.87
2022-12-25T22:47:20.466Z,14.12
2022-12-25T22:50:22.092Z,13.93
2022-12-25T22:53:23.677Z,14.13
2022-12-25T22:56:25.327Z,14.16
2022-12-25T22:59:27.144Z,14.06
2022-12-25T23:02:29.046Z,14.13
2022-12-25T23:05:30.922Z,14.02
2022-12-25T23:08:32.611Z,13.90
2022-12-25T23:11:35.731Z,13.79
2022-12-25T23:14:41.594Z,13.50
2022-12-25T23:18:01.765Z,13.63
2022-12-25T23:21:23.283Z,13.48
2022-12-25T23:24:44.041Z,13.52
2022-12-25T23:27:45.803Z,13.59
2022-12-25T23:30:47.539Z,13.47
2022-12-25T23:33:49.097Z,13.50
2022-12-25T23:36:50.725Z,13.33
2022-12-25T23:39:52.389Z,13.11
2022-12-25T23:42:53.997Z,12.89
2022-12-25T23:45:55.702Z,12.86
2022-12-25T23:48:57.483Z,12.93
2022-12-25T23:51:59.283Z,12.96
2022-12-25T23:55:00.940Z,13.00
2022-12-25T23:58:02.604Z,13.07
